Terminal Aerodrome Forecast
Issued by NWS Knoxville/Tri Cities, TN

Current Version | Previous Version | Text Only | Print | Product List | Glossary On
Versions: 1 2 3 4 5 6 7 8 9 10 11 12 13 14 15 16 17 18 19 20 21 22 23 24 25 26 27 28 29 30
000
FTUS44 KMRX 301400 AAA
TAFTYS
TAF AMD
KTYS 301428Z 3014/0112 25004KT P6SM BKN009
     FM301530 30004KT P6SM SCT250
     FM010100 00000KT P6SM SKC
     FM010900 00000KT 2SM BR SCT008=

USA.gov is the U.S. government's official web portal to all federal, state and local government web resources and services.